Latest Weather Observations for Georgetown Airport

IDQ60801

Issued at 11:05 pm EST Wednesday 17 September 2014 (issued every 30 minutes, with the page automatically refreshed every 10 minutes)

About weather observations | Map of weather stations | Latest weather observations for QLD | Other Formats
Station Details ID: 030124 Name: GEORGETOWN AIRPORT Lat: -18.30 Lon: 143.53 Height: 301.77 m
Data from the previous 72 hours. | See also: Recent months at Georgetown Airport
Date/Time
EST
Temp
°C
App
Temp
°C
Dew
Point
Rel
Hum
%
Delta-T
°C
Wind Press
QNH
hPa
Press
MSL
hPa
Rain
since 9 am
mm
Dir
 
Spd
km/h
Gust
km/h
Spd
kts
Gust
kts
17/11:00pm 23.9 20.7 3.2 26 10.2 ENE 9 13 5 7 1017.0 - 0.0
17/10:30pm 25.1 20.9 3.7 25 10.7 E 15 22 8 12 1016.7 - 0.0
17/10:00pm 22.5 17.3 3.6 29 9.3 NE 20 26 11 14 1016.3 - 0.0
17/09:30pm 21.1 18.2 2.4 29 8.9 S 7 9 4 5 1015.7 - 0.0
17/09:00pm 21.5 18.7 2.2 28 9.1 SE 6 9 3 5 1015.3 1013.7 0.0
17/08:30pm 23.9 22.4 3.2 26 10.2 CALM 0 6 0 3 1014.9 - 0.0
17/08:00pm 23.9 21.0 2.7 25 10.3 E 7 11 4 6 1014.7 - 0.0
17/07:30pm 26.1 23.8 2.7 22 11.6 W 4 7 2 4 1014.1 - 0.0
17/07:00pm 27.5 24.5 1.8 19 12.6 W 7 9 4 5 1013.7 - 0.0
17/06:30pm 30.0 27.0 2.3 17 14.0 WSW 7 9 4 5 1013.4 - 0.0
17/06:00pm 31.9 27.8 2.1 15 15.1 SW 13 19 7 10 1013.1 1011.5 0.0
17/05:30pm 32.7 27.8 1.7 14 15.7 WSW 17 24 9 13 1013.0 - 0.0
17/05:00pm 33.6 29.4 1.4 13 16.3 SSW 13 22 7 12 1012.8 - 0.0
17/04:30pm 33.8 30.4 1.6 13 16.4 W 9 26 5 14 1012.7 - 0.0
17/04:00pm 33.6 29.5 2.4 14 16.1 SSW 13 20 7 11 1012.7 - 0.0
17/03:30pm 33.7 28.7 1.5 13 16.4 SW 17 28 9 15 1012.9 - 0.0
17/03:00pm 33.9 30.7 0.5 12 16.7 S 7 17 4 9 1013.3 1011.7 0.0
17/02:30pm 33.1 27.3 -0.1 12 16.4 S 20 32 11 17 1013.5 - 0.0
17/02:00pm 33.4 28.6 0.1 12 16.5 SSW 15 20 8 11 1014.1 - 0.0
17/01:30pm 33.0 27.6 -1.4 11 16.6 SSW 17 32 9 17 1014.6 - 0.0
17/01:00pm 32.5 27.9 1.6 14 15.6 ESE 15 26 8 14 1014.8 - 0.0
17/12:30pm 31.6 26.6 3.6 17 14.6 SSE 19 32 10 17 1015.3 - 0.0
17/12:00pm 31.2 28.5 5.6 20 13.7 ESE 9 17 5 9 1016.0 1014.4 0.0
17/11:30am 29.9 27.4 6.5 23 12.6 SE 9 17 5 9 1016.8 - 0.0
17/11:00am 28.4 25.9 6.5 25 11.7 SSW 9 17 5 9 1017.5 - 0.0
17/10:30am 27.4 25.6 7.8 29 10.7 NE 7 13 4 7 1018.0 - 0.0
17/10:00am 25.7 24.0 8.2 33 9.5 E 7 13 4 7 1018.3 - 0.0
17/09:30am 25.0 23.5 8.5 35 9.0 WSW 6 11 3 6 1018.4 - 0.0
17/09:00am 23.8 22.2 8.6 38 8.2 NE 7 13 4 7 1018.3 1016.7 0.0
17/08:30am 22.6 20.3 9.0 42 7.4 NE 11 15 6 8 1018.0 - 0.0
17/08:00am 21.6 20.0 10.1 48 6.3 E 9 15 5 8 1017.8 - 0.0
17/07:30am 19.8 18.6 10.2 54 5.2 E 7 11 4 6 1017.5 - 0.0
17/07:00am 15.5 15.0 8.0 61 3.8 CALM 0 0 0 0 1017.2 - 0.0
17/06:30am 14.1 12.7 7.4 64 3.3 NE 4 7 2 4 1016.9 - 0.0
17/06:00am 14.0 13.0 7.3 64 3.3 N 2 6 1 3 1016.7 1015.1 0.0
17/05:30am 15.3 13.8 8.5 64 3.5 NE 6 7 3 4 1016.1 - 0.0
17/05:00am 16.0 15.5 7.7 58 4.2 CALM 0 6 0 3 1015.8 - 0.0
17/04:30am 17.8 16.3 8.6 55 4.8 NE 6 7 3 4 1015.5 - 0.0
17/04:00am 18.8 16.9 9.0 53 5.2 NE 9 13 5 7 1015.4 - 0.0
17/03:30am 18.9 16.9 8.8 52 5.3 NE 9 13 5 7 1015.3 - 0.0
17/03:00am 19.2 17.6 8.8 51 5.5 NE 7 9 4 5 1015.5 1013.9 0.0
17/02:30am 20.4 19.1 9.3 49 6.0 NNE 6 7 3 4 1015.4 - 0.0
17/02:00am 21.2 19.1 9.8 48 6.2 NE 11 15 6 8 1015.4 - 0.0
17/01:30am 21.4 19.6 10.9 51 5.9 NE 11 13 6 7 1015.5 - 0.0
17/01:00am 21.2 19.7 10.7 51 5.8 E 9 11 5 6 1015.5 - 0.0
17/12:30am 22.2 20.4 11.0 49 6.3 ENE 11 17 6 9 1015.6 - 0.0
17/12:00am 23.0 21.2 10.8 46 6.8 E 11 17 6 9 1015.6 1014.0 0.0
 
Date/Time
EST
Temp
°C
App
Temp
°C
Dew
Point
Rel
Hum
%
Delta-T
°C
Wind Press
QNH
hPa
Press
MSL
hPa
Rain
since 9 am
mm
Dir
 
Spd
km/h
Gust
km/h
Spd
kts
Gust
kts
16/11:30pm 22.0 18.8 5.0 33 8.5 E 11 15 6 8 1015.6 - 0.0
16/11:00pm 20.7 17.6 3.4 32 8.3 SE 9 11 5 6 1015.2 - 0.0
16/10:30pm 20.6 17.8 3.3 32 8.3 SE 7 9 4 5 1014.9 - 0.0
16/10:00pm 20.4 17.8 3.2 32 8.2 SE 6 7 3 4 1014.8 - 0.0
16/09:30pm 20.8 18.0 3.1 31 8.5 ESE 7 9 4 5 1014.5 - 0.0
16/09:00pm 22.0 19.3 3.6 30 9.0 ESE 7 7 4 4 1014.3 1012.6 0.0
16/08:30pm 22.2 19.6 3.3 29 9.2 ESE 6 7 3 4 1014.0 - 0.0
16/08:00pm 23.7 21.1 3.1 26 10.1 E 6 7 3 4 1013.7 - 0.0
16/07:30pm 24.8 22.0 2.3 23 10.9 E 6 9 3 5 1013.3 - 0.0
16/07:00pm 26.9 24.0 2.7 21 12.0 ESE 7 9 4 5 1012.9 - 0.0
16/06:30pm 29.0 26.2 3.1 19 13.1 S 7 11 4 6 1012.5 - 0.0
16/06:00pm 30.3 27.0 2.5 17 14.1 SE 9 13 5 7 1012.2 1010.6 0.0
16/05:30pm 31.2 27.7 3.3 17 14.4 SSE 11 17 6 9 1012.0 - 0.0
16/05:00pm 31.6 29.1 3.6 17 14.6 NE 6 13 3 7 1011.8 - 0.0
16/04:30pm 31.5 28.0 3.5 17 14.5 SE 11 20 6 11 1011.9 - 0.0
16/04:00pm 31.4 26.4 3.4 17 14.5 ESE 19 26 10 14 1011.8 - 0.0
16/03:30pm 32.0 29.5 4.7 18 14.5 S 7 20 4 11 1011.9 - 0.0
16/03:00pm 31.0 25.9 3.9 18 14.1 S 20 30 11 16 1012.4 1010.9 0.0
16/02:30pm 31.0 26.4 5.4 20 13.7 SSE 19 30 10 16 1012.9 - 0.0
16/02:00pm 30.2 26.6 4.8 20 13.4 ENE 13 20 7 11 1013.4 - 0.0
16/01:30pm 30.2 27.6 6.1 22 13.0 N 9 15 5 8 1013.7 - 0.0
16/01:00pm 28.7 26.4 7.3 26 11.6 S 9 20 5 11 1014.6 - 0.0
16/12:30pm 29.8 27.2 7.7 25 12.2 E 11 22 6 12 1015.1 - 0.0
16/12:00pm 28.8 27.5 10.0 31 10.7 NE 7 33 4 18 1015.7 1014.1 0.0
16/11:30am 28.1 26.5 10.3 33 10.2 ENE 9 20 5 11 1016.5 - 0.0
16/11:00am 27.0 25.2 10.7 36 9.3 E 11 17 6 9 1017.0 - 0.0
16/10:30am 26.4 24.5 11.7 40 8.5 ENE 13 20 7 11 1017.4 - 0.0
16/10:00am 25.1 22.9 12.0 44 7.6 ENE 15 22 8 12 1018.0 - 0.0
16/09:30am 23.8 21.8 12.8 50 6.4 ENE 15 24 8 13 1018.2 - 0.0
16/09:00am 22.4 20.6 13.2 56 5.4 ENE 15 20 8 11 1018.4 1016.8 0.0
16/08:30am 21.6 20.1 13.0 58 5.0 E 13 17 7 9 1018.4 - 0.0
16/08:00am 20.5 19.4 13.0 62 4.3 E 11 17 6 9 1018.2 - 0.0
16/07:30am 19.4 18.7 13.1 67 3.6 ESE 9 13 5 7 1017.8 - 0.0
16/07:00am 16.0 16.2 12.0 77 2.2 ESE 2 6 1 3 1017.5 - 0.0
16/06:30am 13.9 12.7 10.3 79 1.9 E 7 11 4 6 1017.0 - 0.0
16/06:00am 14.3 14.0 10.1 76 2.2 SW 2 7 1 4 1016.6 1015.0 0.0
16/05:30am 14.9 14.8 12.0 83 1.6 WNW 4 7 2 4 1016.3 - 0.0
16/05:00am 15.7 16.4 12.1 79 2.0 CALM 0 0 0 0 1015.6 - 0.0
16/04:30am 16.0 15.4 11.8 76 2.3 ENE 6 7 3 4 1015.3 - 0.0
16/04:00am 16.6 16.0 11.7 73 2.7 NE 6 9 3 5 1015.1 - 0.0
16/03:30am 17.2 16.7 11.9 71 2.9 ESE 6 7 3 4 1014.9 - 0.0
16/03:00am 18.2 17.7 12.2 68 3.4 ESE 6 9 3 5 1015.0 1013.4 0.0
16/02:30am 19.4 18.5 12.7 65 3.8 ENE 9 11 5 6 1015.1 - 0.0
16/02:00am 19.8 18.4 12.3 62 4.3 ENE 11 15 6 8 1014.9 - 0.0
16/01:30am 20.0 18.6 12.3 61 4.4 ENE 11 15 6 8 1014.8 - 0.0
16/01:00am 21.1 19.7 12.3 57 5.0 ENE 11 13 6 7 1014.9 - 0.0
16/12:30am 22.1 20.7 12.1 53 5.7 ENE 11 19 6 10 1014.8 - 0.0
16/12:00am 22.5 20.8 11.3 49 6.3 ENE 11 17 6 9 1014.7 1013.1 0.0
 
Date/Time
EST
Temp
°C
App
Temp
°C
Dew
Point
Rel
Hum
%
Delta-T
°C
Wind Press
QNH
hPa
Press
MSL
hPa
Rain
since 9 am
mm
Dir
 
Spd
km/h
Gust
km/h
Spd
kts
Gust
kts
15/11:30pm 22.4 20.0 9.9 45 6.9 ENE 13 20 7 11 1014.7 - 0.0
15/11:00pm 20.9 18.9 4.5 34 8.1 SW 4 7 2 4 1014.2 - 0.0
15/10:30pm 22.5 19.4 5.4 33 8.7 SSW 11 15 6 8 1014.2 - 0.0
15/10:00pm 20.9 17.7 4.9 35 8.0 WSW 11 15 6 8 1014.0 - 0.0
15/09:30pm 20.9 19.8 4.9 35 8.0 CALM 0 0 0 0 1013.7 - 0.0
15/09:00pm 21.8 20.6 4.4 32 8.6 CALM 0 0 0 0 1013.7 1012.1 0.0
15/08:30pm 23.4 21.4 4.4 29 9.5 E 4 7 2 4 1013.6 - 0.0
15/08:00pm 23.6 21.1 4.5 29 9.6 E 7 9 4 5 1013.2 - 0.0
15/07:30pm 23.6 22.2 3.5 27 9.9 CALM 0 6 0 3 1012.8 - 0.0
15/07:00pm 25.7 23.3 4.2 25 10.9 SW 6 6 3 3 1012.6 - 0.0
15/06:30pm 28.3 26.0 4.6 22 12.3 SSW 6 7 3 4 1012.4 - 0.0
15/06:00pm 29.7 27.7 4.4 20 13.2 SE 4 9 2 5 1012.2 1010.6 0.0
15/05:30pm 30.5 27.5 4.3 19 13.7 S 9 15 5 8 1012.1 - 0.0
15/05:00pm 30.7 28.1 4.4 19 13.8 SE 7 15 4 8 1012.1 - 0.0
15/04:30pm 30.9 28.1 5.3 20 13.6 S 9 17 5 9 1012.1 - 0.0
15/04:00pm 30.5 26.9 5.0 20 13.5 SSE 13 20 7 11 1012.1 - 0.0
15/03:30pm 31.5 28.8 5.8 20 13.8 S 9 19 5 10 1012.2 - 0.0
15/03:00pm 30.3 27.6 5.6 21 13.2 W 9 17 5 9 1012.4 1010.8 0.0
15/02:30pm 30.2 26.0 5.5 21 13.2 S 17 26 9 14 1013.0 - 0.0
15/02:00pm 30.7 27.7 5.9 21 13.3 S 11 20 6 11 1013.4 - 0.0
15/01:30pm 30.0 25.5 6.0 22 12.9 SE 19 20 10 11 1013.8 - 0.0
15/01:00pm 29.3 24.8 6.0 23 12.4 SW 19 28 10 15 1014.5 - 0.0
15/12:30pm 28.7 25.5 6.7 25 11.9 E 13 24 7 13 1015.0 - 0.0
15/12:00pm 28.6 24.2 6.7 25 11.8 SE 19 22 10 12 1015.5 1013.9 0.0
15/11:30am 27.9 24.6 6.6 26 11.4 E 13 20 7 11 1016.1 - 0.0
15/11:00am 27.4 23.1 6.8 27 11.0 E 19 28 10 15 1016.6 - 0.0
15/10:30am 26.4 22.6 7.4 30 10.2 E 17 28 9 15 1016.9 - 0.0
15/10:00am 25.5 21.3 7.6 32 9.6 E 19 30 10 16 1017.1 - 0.0
15/09:30am 24.2 21.4 8.6 37 8.5 E 13 26 7 14 1017.3 - 0.0
15/09:00am 22.3 19.5 10.1 46 6.7 ENE 15 22 8 12 1017.5 1016.0 0.0
15/08:30am 21.7 20.1 11.4 52 5.8 E 11 20 6 11 1017.3 - 0.0
15/08:00am 20.5 18.9 11.4 56 5.1 ESE 11 17 6 9 1017.1 - 0.0
15/07:30am 19.5 18.4 11.8 61 4.3 ESE 9 15 5 8 1016.9 - 0.0
15/07:00am 14.6 13.5 9.8 73 2.5 ESE 6 7 3 4 1016.7 - 0.0
15/06:30am 13.5 12.2 9.2 75 2.2 E 6 7 3 4 1016.5 - 0.0
15/06:00am 14.1 14.1 9.9 76 2.2 CALM 0 0 0 0 1016.3 1014.7 0.0
15/05:30am 14.5 14.6 10.1 75 2.3 CALM 0 0 0 0 1016.0 - 0.0
15/05:00am 15.1 15.3 10.7 75 2.4 CALM 0 0 0 0 1015.6 - 0.0
15/04:30am 15.1 15.2 10.3 73 2.6 CALM 0 0 0 0 1015.3 - 0.0
15/04:00am 15.2 13.8 9.6 69 2.9 WSW 7 9 4 5 1015.2 - 0.0
15/03:30am 16.4 16.6 10.7 69 3.1 CALM 0 0 0 0 1014.8 - 0.0
15/03:00am 17.1 16.2 10.5 65 3.6 ENE 6 7 3 4 1014.8 1013.2 0.0
15/02:30am 18.3 18.2 10.9 62 4.1 NNE 2 7 1 4 1014.9 - 0.0
15/02:00am 19.6 19.3 11.6 60 4.5 E 4 7 2 4 1015.0 - 0.0
15/01:30am 19.9 19.0 11.4 58 4.7 ENE 7 13 4 7 1014.9 - 0.0
15/01:00am 21.1 19.4 12.3 57 5.0 ENE 13 20 7 11 1014.9 - 0.0
15/12:30am 21.7 19.5 12.0 54 5.5 E 15 26 8 14 1015.1 - 0.0
15/12:00am 22.2 19.6 11.9 52 5.9 ENE 17 26 9 14 1015.0 1013.4 0.0
 
Date/Time
EST
Temp
°C
App
Temp
°C
Dew
Point
Rel
Hum
%
Delta-T
°C
Wind Press
QNH
hPa
Press
MSL
hPa
Rain
since 9 am
mm
Dir
 
Spd
km/h
Gust
km/h
Spd
kts
Gust
kts
14/11:30pm 22.7 20.8 11.7 49 6.3 E 13 19 7 10 1014.7 - 0.0

Other Formats:

Comma delimited format used in spreadsheet applications
http://www.bom.gov.au/fwo/IDQ60801/IDQ60801.94274.axf

JavaScript Object Notation format (JSON) in row-major order
http://www.bom.gov.au/fwo/IDQ60801/IDQ60801.94274.json